sensor_id;sensor_type;location;lat;lon;timestamp;pressure;altitude;pressure_sealevel;temperature;humidity
56737;BME280;42618;51.226;4.910;2023-04-20T00:03:12;49621.34;;;-146.94;31.35
56737;BME280;42618;51.226;4.910;2023-04-20T00:05:39;49561.53;;;-146.94;31.35
56737;BME280;42618;51.226;4.910;2023-04-20T00:08:06;49579.47;;;-146.94;31.36
56737;BME280;42618;51.226;4.910;2023-04-20T00:10:33;49581.47;;;-146.94;31.68
56737;BME280;42618;51.226;4.910;2023-04-20T00:13:00;49587.47;;;-146.94;31.88
56737;BME280;42618;51.226;4.910;2023-04-20T00:15:26;49563.53;;;-146.94;31.80
56737;BME280;42618;51.226;4.910;2023-04-20T00:17:53;49567.53;;;-146.94;31.72
56737;BME280;42618;51.226;4.910;2023-04-20T00:20:20;49577.50;;;-146.94;32.04
56737;BME280;42618;51.226;4.910;2023-04-20T00:22:47;49569.50;;;-146.94;31.89
56737;BME280;42618;51.226;4.910;2023-04-20T00:25:13;49563.53;;;-146.94;31.58
56737;BME280;42618;51.226;4.910;2023-04-20T00:27:40;49571.50;;;-146.94;31.99
56737;BME280;42618;51.226;4.910;2023-04-20T00:30:08;49597.44;;;-146.94;32.01
56737;BME280;42618;51.226;4.910;2023-04-20T00:32:35;49569.50;;;-146.94;31.46
56737;BME280;42618;51.226;4.910;2023-04-20T00:35:02;49595.44;;;-146.94;31.95
56737;BME280;42618;51.226;4.910;2023-04-20T00:37:29;49591.44;;;-146.94;31.29
56737;BME280;42618;51.226;4.910;2023-04-20T00:39:56;49627.31;;;-146.94;31.74
56737;BME280;42618;51.226;4.910;2023-04-20T00:42:23;49593.44;;;-146.94;31.86
56737;BME280;42618;51.226;4.910;2023-04-20T00:44:50;49565.53;;;-146.94;31.49
56737;BME280;42618;51.226;4.910;2023-04-20T00:47:17;49599.41;;;-146.94;31.97
56737;BME280;42618;51.226;4.910;2023-04-20T00:49:43;49585.47;;;-146.94;32.02
56737;BME280;42618;51.226;4.910;2023-04-20T00:52:10;49601.41;;;-146.94;31.91
56737;BME280;42618;51.226;4.910;2023-04-20T00:54:37;49577.50;;;-146.94;31.39
56737;BME280;42618;51.226;4.910;2023-04-20T00:57:04;49601.41;;;-146.94;31.80
56737;BME280;42618;51.226;4.910;2023-04-20T00:59:33;49579.47;;;-146.94;31.48
56737;BME280;42618;51.226;4.910;2023-04-20T01:02:00;49599.41;;;-146.94;31.56
56737;BME280;42618;51.226;4.910;2023-04-20T01:04:27;49605.41;;;-146.94;31.86
56737;BME280;42618;51.226;4.910;2023-04-20T01:06:56;49575.50;;;-146.94;31.48
56737;BME280;42618;51.226;4.910;2023-04-20T01:09:23;49559.56;;;-146.94;31.46
56737;BME280;42618;51.226;4.910;2023-04-20T01:11:50;49579.47;;;-146.94;31.67
56737;BME280;42618;51.226;4.910;2023-04-20T01:14:17;49575.50;;;-146.94;31.86
56737;BME280;42618;51.226;4.910;2023-04-20T01:16:43;49595.44;;;-146.94;31.79
56737;BME280;42618;51.226;4.910;2023-04-20T01:19:12;49619.34;;;-146.94;31.66
56737;BME280;42618;51.226;4.910;2023-04-20T01:21:39;49563.53;;;-146.94;31.69
56737;BME280;42618;51.226;4.910;2023-04-20T01:24:06;49629.31;;;-146.94;31.91
56737;BME280;42618;51.226;4.910;2023-04-20T01:26:33;49571.50;;;-146.94;31.67
56737;BME280;42618;51.226;4.910;2023-04-20T01:29:00;49611.38;;;-146.94;31.88
56737;BME280;42618;51.226;4.910;2023-04-20T01:31:27;49583.47;;;-146.94;32.16
56737;BME280;42618;51.226;4.910;2023-04-20T01:33:53;49579.47;;;-146.94;31.83
56737;BME280;42618;51.226;4.910;2023-04-20T01:36:21;49591.44;;;-146.94;31.83
56737;BME280;42618;51.226;4.910;2023-04-20T01:38:47;49595.44;;;-146.94;32.04
56737;BME280;42618;51.226;4.910;2023-04-20T01:41:14;49625.34;;;-146.94;32.18
56737;BME280;42618;51.226;4.910;2023-04-20T01:43:41;49627.31;;;-146.94;32.49
56737;BME280;42618;51.226;4.910;2023-04-20T01:46:10;49571.50;;;-146.94;32.58
56737;BME280;42618;51.226;4.910;2023-04-20T01:48:38;49603.41;;;-146.94;32.75
56737;BME280;42618;51.226;4.910;2023-04-20T01:51:05;49651.25;;;-146.94;32.74
56737;BME280;42618;51.226;4.910;2023-04-20T01:53:32;49589.44;;;-146.94;32.64
56737;BME280;42618;51.226;4.910;2023-04-20T01:55:58;49617.38;;;-146.94;32.75
56737;BME280;42618;51.226;4.910;2023-04-20T01:58:25;49609.38;;;-146.94;32.56
56737;BME280;42618;51.226;4.910;2023-04-20T02:00:54;49591.44;;;-146.94;33.03
56737;BME280;42618;51.226;4.910;2023-04-20T02:03:21;49611.38;;;-146.94;32.47
56737;BME280;42618;51.226;4.910;2023-04-20T02:05:48;49579.47;;;-146.94;32.29
56737;BME280;42618;51.226;4.910;2023-04-20T02:08:16;49591.44;;;-146.94;32.24
56737;BME280;42618;51.226;4.910;2023-04-20T02:10:43;49593.44;;;-146.94;32.56
56737;BME280;42618;51.226;4.910;2023-04-20T02:13:09;49557.56;;;-146.94;33.12
56737;BME280;42618;51.226;4.910;2023-04-20T02:15:37;49615.38;;;-146.94;32.83
56737;BME280;42618;51.226;4.910;2023-04-20T02:18:04;49643.28;;;-146.94;32.76
56737;BME280;42618;51.226;4.910;2023-04-20T02:20:31;49619.34;;;-146.94;32.61
56737;BME280;42618;51.226;4.910;2023-04-20T02:22:58;49609.38;;;-146.94;32.68
56737;BME280;42618;51.226;4.910;2023-04-20T02:25:26;49599.41;;;-146.94;32.67
56737;BME280;42618;51.226;4.910;2023-04-20T02:27:53;49599.41;;;-146.94;32.89
56737;BME280;42618;51.226;4.910;2023-04-20T02:30:19;49579.47;;;-146.94;33.05
56737;BME280;42618;51.226;4.910;2023-04-20T02:32:46;49643.28;;;-146.94;34.04
56737;BME280;42618;51.226;4.910;2023-04-20T02:35:14;49615.38;;;-146.94;33.45
56737;BME280;42618;51.226;4.910;2023-04-20T02:37:42;49619.34;;;-146.94;32.80
56737;BME280;42618;51.226;4.910;2023-04-20T02:40:11;49609.38;;;-146.94;32.88
56737;BME280;42618;51.226;4.910;2023-04-20T02:42:38;49599.41;;;-146.94;33.86
56737;BME280;42618;51.226;4.910;2023-04-20T02:45:08;49595.44;;;-146.94;32.63
56737;BME280;42618;51.226;4.910;2023-04-20T02:47:35;49599.41;;;-146.94;33.72
56737;BME280;42618;51.226;4.910;2023-04-20T02:50:02;49617.38;;;-146.94;33.38
56737;BME280;42618;51.226;4.910;2023-04-20T02:52:35;49615.38;;;-146.94;33.46
56737;BME280;42618;51.226;4.910;2023-04-20T02:55:02;49619.34;;;-146.94;33.72
56737;BME280;42618;51.226;4.910;2023-04-20T02:57:29;49627.31;;;-146.94;33.01
56737;BME280;42618;51.226;4.910;2023-04-20T02:59:56;49625.34;;;-146.94;33.05
56737;BME280;42618;51.226;4.910;2023-04-20T03:02:28;49595.44;;;-146.94;32.70
56737;BME280;42618;51.226;4.910;2023-04-20T03:04:56;49605.41;;;-146.94;32.75
56737;BME280;42618;51.226;4.910;2023-04-20T03:07:23;49607.41;;;-146.94;33.24
56737;BME280;42618;51.226;4.910;2023-04-20T03:09:51;49611.38;;;-146.94;33.88
56737;BME280;42618;51.226;4.910;2023-04-20T03:12:24;49589.44;;;-146.94;33.93
56737;BME280;42618;51.226;4.910;2023-04-20T03:15:04;49605.41;;;-146.94;34.06
56737;BME280;42618;51.226;4.910;2023-04-20T03:17:45;49559.56;;;-146.94;34.62
56737;BME280;42618;51.226;4.910;2023-04-20T03:20:13;49611.38;;;-146.94;33.91
56737;BME280;42618;51.226;4.910;2023-04-20T03:22:40;49567.53;;;-146.94;33.60
56737;BME280;42618;51.226;4.910;2023-04-20T03:25:07;49603.41;;;-146.94;33.81
56737;BME280;42618;51.226;4.910;2023-04-20T03:27:50;49587.47;;;-146.94;34.35
56737;BME280;42618;51.226;4.910;2023-04-20T03:30:17;49575.50;;;-146.94;33.58
56737;BME280;42618;51.226;4.910;2023-04-20T03:32:49;49591.44;;;-146.94;33.50
56737;BME280;42618;51.226;4.910;2023-04-20T03:35:16;49615.38;;;-146.94;34.30
56737;BME280;42618;51.226;4.910;2023-04-20T03:37:43;49587.47;;;-146.94;34.66
56737;BME280;42618;51.226;4.910;2023-04-20T03:40:10;49607.41;;;-146.94;34.62
56737;BME280;42618;51.226;4.910;2023-04-20T03:42:37;49603.41;;;-146.94;34.78
56737;BME280;42618;51.226;4.910;2023-04-20T03:45:05;49619.34;;;-146.94;35.00
56737;BME280;42618;51.226;4.910;2023-04-20T03:47:32;49551.56;;;-146.94;35.23
56737;BME280;42618;51.226;4.910;2023-04-20T03:49:59;49593.44;;;-146.94;34.99
56737;BME280;42618;51.226;4.910;2023-04-20T03:52:25;49579.47;;;-146.94;35.31
56737;BME280;42618;51.226;4.910;2023-04-20T03:54:53;49571.50;;;-146.94;36.08
56737;BME280;42618;51.226;4.910;2023-04-20T03:57:19;49599.41;;;-146.94;34.86
56737;BME280;42618;51.226;4.910;2023-04-20T03:59:47;49603.41;;;-146.94;35.35
56737;BME280;42618;51.226;4.910;2023-04-20T04:02:17;49581.47;;;-146.94;35.81
56737;BME280;42618;51.226;4.910;2023-04-20T04:04:45;49617.38;;;-146.94;35.44
56737;BME280;42618;51.226;4.910;2023-04-20T04:07:12;49611.38;;;-146.94;36.29
56737;BME280;42618;51.226;4.910;2023-04-20T04:09:41;49579.47;;;-146.94;36.31
56737;BME280;42618;51.226;4.910;2023-04-20T04:12:11;49627.31;;;-146.94;36.77
56737;BME280;42618;51.226;4.910;2023-04-20T04:14:38;49601.41;;;-146.94;36.70
56737;BME280;42618;51.226;4.910;2023-04-20T04:17:06;49551.56;;;-146.94;36.72
56737;BME280;42618;51.226;4.910;2023-04-20T04:19:36;49623.34;;;-146.94;36.64
56737;BME280;42618;51.226;4.910;2023-04-20T04:22:03;49591.44;;;-146.94;37.12
56737;BME280;42618;51.226;4.910;2023-04-20T04:24:35;49621.34;;;-146.94;36.60
56737;BME280;42618;51.226;4.910;2023-04-20T04:27:06;49613.38;;;-146.94;37.06
56737;BME280;42618;51.226;4.910;2023-04-20T04:29:38;49597.44;;;-146.94;36.92
56737;BME280;42618;51.226;4.910;2023-04-20T04:32:12;49593.44;;;-146.94;36.85
56737;BME280;42618;51.226;4.910;2023-04-20T04:34:38;49617.38;;;-146.94;36.49
56737;BME280;42618;51.226;4.910;2023-04-20T04:37:06;49627.31;;;-146.94;36.82
56737;BME280;42618;51.226;4.910;2023-04-20T04:39:43;49605.41;;;-146.94;37.03
56737;BME280;42618;51.226;4.910;2023-04-20T04:42:21;49597.44;;;-146.94;37.09
56737;BME280;42618;51.226;4.910;2023-04-20T04:44:50;49623.34;;;-146.94;37.03
56737;BME280;42618;51.226;4.910;2023-04-20T04:47:24;49615.38;;;-146.94;37.14
56737;BME280;42618;51.226;4.910;2023-04-20T04:49:51;49561.53;;;-146.94;37.11
56737;BME280;42618;51.226;4.910;2023-04-20T04:52:18;49577.50;;;-146.94;37.62
56737;BME280;42618;51.226;4.910;2023-04-20T04:54:44;49603.41;;;-146.94;37.03
56737;BME280;42618;51.226;4.910;2023-04-20T04:57:11;49607.41;;;-146.94;37.09
56737;BME280;42618;51.226;4.910;2023-04-20T04:59:38;49577.50;;;-146.94;37.27
56737;BME280;42618;51.226;4.910;2023-04-20T05:02:05;49599.41;;;-146.94;37.23
56737;BME280;42618;51.226;4.910;2023-04-20T05:04:32;49583.47;;;-146.94;37.33
56737;BME280;42618;51.226;4.910;2023-04-20T05:06:59;49583.47;;;-146.94;37.23
56737;BME280;42618;51.226;4.910;2023-04-20T05:09:26;49571.50;;;-146.94;37.80
56737;BME280;42618;51.226;4.910;2023-04-20T05:11:59;49605.41;;;-146.94;37.30
56737;BME280;42618;51.226;4.910;2023-04-20T05:14:30;49625.34;;;-146.94;37.25
56737;BME280;42618;51.226;4.910;2023-04-20T05:16:58;49583.47;;;-146.94;37.72
56737;BME280;42618;51.226;4.910;2023-04-20T05:19:25;49583.47;;;-146.94;37.43
56737;BME280;42618;51.226;4.910;2023-04-20T05:21:52;49623.34;;;-146.94;37.98
56737;BME280;42618;51.226;4.910;2023-04-20T05:24:18;49643.28;;;-146.94;37.75
56737;BME280;42618;51.226;4.910;2023-04-20T05:26:45;49623.34;;;-146.94;37.80
56737;BME280;42618;51.226;4.910;2023-04-20T05:29:15;49599.41;;;-146.94;37.59
56737;BME280;42618;51.226;4.910;2023-04-20T05:31:42;49607.41;;;-146.94;37.86
56737;BME280;42618;51.226;4.910;2023-04-20T05:34:10;49611.38;;;-146.94;37.83
56737;BME280;42618;51.226;4.910;2023-04-20T05:36:38;49547.59;;;-146.94;37.85
56737;BME280;42618;51.226;4.910;2023-04-20T05:39:05;49607.41;;;-146.94;37.96
56737;BME280;42618;51.226;4.910;2023-04-20T05:41:32;49603.41;;;-146.94;38.08
56737;BME280;42618;51.226;4.910;2023-04-20T05:43:58;49595.44;;;-146.94;38.60
56737;BME280;42618;51.226;4.910;2023-04-20T05:46:25;49609.38;;;-146.94;39.24
56737;BME280;42618;51.226;4.910;2023-04-20T05:48:53;49599.41;;;-146.94;40.46
56737;BME280;42618;51.226;4.910;2023-04-20T05:51:20;49585.47;;;-146.94;40.93
56737;BME280;42618;51.226;4.910;2023-04-20T05:53:47;49589.44;;;-146.94;41.97
56737;BME280;42618;51.226;4.910;2023-04-20T05:56:14;49589.44;;;-146.94;42.86
56737;BME280;42618;51.226;4.910;2023-04-20T05:58:41;49609.38;;;-146.94;43.51
56737;BME280;42618;51.226;4.910;2023-04-20T06:01:08;49607.41;;;-146.94;43.51
56737;BME280;42618;51.226;4.910;2023-04-20T06:03:35;49607.41;;;-146.94;43.87
56737;BME280;42618;51.226;4.910;2023-04-20T06:06:02;49635.31;;;-146.94;45.18
56737;BME280;42618;51.226;4.910;2023-04-20T06:08:29;49627.31;;;-146.94;45.02
56737;BME280;42618;51.226;4.910;2023-04-20T06:10:56;49655.25;;;-146.94;44.57
56737;BME280;42618;51.226;4.910;2023-04-20T06:13:23;49631.31;;;-146.94;44.46
56737;BME280;42618;51.226;4.910;2023-04-20T06:15:50;49625.34;;;-146.94;44.82
56737;BME280;42618;51.226;4.910;2023-04-20T06:18:18;49615.38;;;-146.94;44.71
56737;BME280;42618;51.226;4.910;2023-04-20T06:20:45;49583.47;;;-146.94;44.48
56737;BME280;42618;51.226;4.910;2023-04-20T06:23:12;49631.31;;;-146.94;44.60
56737;BME280;42618;51.226;4.910;2023-04-20T06:25:39;49613.38;;;-146.94;44.25
56737;BME280;42618;51.226;4.910;2023-04-20T06:28:07;49589.44;;;-146.94;44.36
56737;BME280;42618;51.226;4.910;2023-04-20T06:30:34;49589.44;;;-146.94;44.38
56737;BME280;42618;51.226;4.910;2023-04-20T06:33:01;49635.31;;;-146.94;44.13
56737;BME280;42618;51.226;4.910;2023-04-20T06:35:28;49597.44;;;-146.94;43.76
56737;BME280;42618;51.226;4.910;2023-04-20T06:37:55;49603.41;;;-146.94;44.20
56737;BME280;42618;51.226;4.910;2023-04-20T06:40:26;49611.38;;;-146.94;44.12
56737;BME280;42618;51.226;4.910;2023-04-20T06:42:53;49607.41;;;-146.94;43.73
56737;BME280;42618;51.226;4.910;2023-04-20T06:45:20;49585.47;;;-146.94;43.42
56737;BME280;42618;51.226;4.910;2023-04-20T06:47:47;49593.44;;;-146.94;43.69
56737;BME280;42618;51.226;4.910;2023-04-20T06:50:14;49583.47;;;-146.94;42.97
56737;BME280;42618;51.226;4.910;2023-04-20T06:52:41;49607.41;;;-146.94;43.41
56737;BME280;42618;51.226;4.910;2023-04-20T06:55:08;49611.38;;;-146.94;43.80
56737;BME280;42618;51.226;4.910;2023-04-20T06:57:35;49607.41;;;-146.94;43.80
56737;BME280;42618;51.226;4.910;2023-04-20T07:00:06;49609.38;;;-146.94;43.51
56737;BME280;42618;51.226;4.910;2023-04-20T07:02:48;49583.47;;;-146.94;43.26
56737;BME280;42618;51.226;4.910;2023-04-20T07:05:16;49593.44;;;-146.94;42.97
56737;BME280;42618;51.226;4.910;2023-04-20T07:07:44;49583.47;;;-146.94;43.30
56737;BME280;42618;51.226;4.910;2023-04-20T07:10:12;49621.34;;;-146.94;43.25
56737;BME280;42618;51.226;4.910;2023-04-20T07:12:39;49563.53;;;-146.94;43.13
56737;BME280;42618;51.226;4.910;2023-04-20T07:15:09;49619.34;;;-146.94;42.69
56737;BME280;42618;51.226;4.910;2023-04-20T07:17:36;49593.44;;;-146.94;42.58
56737;BME280;42618;51.226;4.910;2023-04-20T07:20:03;49635.31;;;-146.94;42.15
56737;BME280;42618;51.226;4.910;2023-04-20T07:22:35;49591.44;;;-146.94;41.85
56737;BME280;42618;51.226;4.910;2023-04-20T07:25:02;49567.53;;;-146.94;41.55
56737;BME280;42618;51.226;4.910;2023-04-20T07:27:29;49611.38;;;-146.94;42.06
56737;BME280;42618;51.226;4.910;2023-04-20T07:29:57;49591.44;;;-146.94;41.63
56737;BME280;42618;51.226;4.910;2023-04-20T07:32:24;49603.41;;;-146.94;41.50
56737;BME280;42618;51.226;4.910;2023-04-20T07:34:51;49551.56;;;-146.94;41.16
56737;BME280;42618;51.226;4.910;2023-04-20T07:37:18;49607.41;;;-146.94;41.23
56737;BME280;42618;51.226;4.910;2023-04-20T07:39:45;49597.44;;;-146.94;41.12
56737;BME280;42618;51.226;4.910;2023-04-20T07:42:11;49621.34;;;-146.94;41.65
56737;BME280;42618;51.226;4.910;2023-04-20T07:44:38;49589.44;;;-146.94;41.24
56737;BME280;42618;51.226;4.910;2023-04-20T07:47:05;49603.41;;;-146.94;40.75
56737;BME280;42618;51.226;4.910;2023-04-20T07:49:35;49591.44;;;-146.94;40.56
56737;BME280;42618;51.226;4.910;2023-04-20T07:52:03;49577.50;;;-146.94;40.67
56737;BME280;42618;51.226;4.910;2023-04-20T07:54:42;49615.38;;;-146.94;40.74
56737;BME280;42618;51.226;4.910;2023-04-20T07:57:08;49603.41;;;-146.94;40.76
56737;BME280;42618;51.226;4.910;2023-04-20T07:59:35;49595.44;;;-146.94;41.16
56737;BME280;42618;51.226;4.910;2023-04-20T08:02:02;49593.44;;;-146.94;40.92
56737;BME280;42618;51.226;4.910;2023-04-20T08:04:29;49593.44;;;-146.94;41.35
56737;BME280;42618;51.226;4.910;2023-04-20T08:06:56;49539.63;;;-146.94;41.24
56737;BME280;42618;51.226;4.910;2023-04-20T08:09:23;49569.50;;;-146.94;40.39
56737;BME280;42618;51.226;4.910;2023-04-20T08:11:54;49615.38;;;-146.94;40.79
56737;BME280;42618;51.226;4.910;2023-04-20T08:14:22;49591.44;;;-146.94;40.94
56737;BME280;42618;51.226;4.910;2023-04-20T08:16:48;49613.38;;;-146.94;40.68
56737;BME280;42618;51.226;4.910;2023-04-20T08:19:15;49601.41;;;-146.94;41.07
56737;BME280;42618;51.226;4.910;2023-04-20T08:21:42;49617.38;;;-146.94;41.18
56737;BME280;42618;51.226;4.910;2023-04-20T08:24:09;49591.44;;;-146.94;40.60
56737;BME280;42618;51.226;4.910;2023-04-20T08:26:37;49623.34;;;-146.94;40.69
56737;BME280;42618;51.226;4.910;2023-04-20T08:29:04;49571.50;;;-146.94;41.23
56737;BME280;42618;51.226;4.910;2023-04-20T08:31:31;49607.41;;;-146.94;40.66
56737;BME280;42618;51.226;4.910;2023-04-20T08:33:58;49633.31;;;-146.94;40.32
56737;BME280;42618;51.226;4.910;2023-04-20T08:36:25;49569.50;;;-146.94;40.34
56737;BME280;42618;51.226;4.910;2023-04-20T08:39:07;49611.38;;;-146.94;40.29
56737;BME280;42618;51.226;4.910;2023-04-20T08:41:35;49593.44;;;-146.94;40.85
56737;BME280;42618;51.226;4.910;2023-04-20T08:44:02;49609.38;;;-146.94;41.07
56737;BME280;42618;51.226;4.910;2023-04-20T08:46:29;49601.41;;;-146.94;40.94
56737;BME280;42618;51.226;4.910;2023-04-20T08:48:56;49591.44;;;-146.94;40.46
56737;BME280;42618;51.226;4.910;2023-04-20T08:51:26;49587.47;;;-146.94;40.02
56737;BME280;42618;51.226;4.910;2023-04-20T08:53:54;49581.47;;;-146.94;40.02
56737;BME280;42618;51.226;4.910;2023-04-20T08:56:42;49569.50;;;-146.94;39.72
56737;BME280;42618;51.226;4.910;2023-04-20T08:59:10;49591.44;;;-146.94;39.75
56737;BME280;42618;51.226;4.910;2023-04-20T09:01:39;49607.41;;;-146.94;39.75
56737;BME280;42618;51.226;4.910;2023-04-20T09:04:18;49593.44;;;-146.94;39.67
56737;BME280;42618;51.226;4.910;2023-04-20T09:06:53;49543.59;;;-146.94;39.39
56737;BME280;42618;51.226;4.910;2023-04-20T09:09:22;49563.53;;;-146.94;39.60
56737;BME280;42618;51.226;4.910;2023-04-20T09:12:00;49599.41;;;-146.94;39.11
56737;BME280;42618;51.226;4.910;2023-04-20T09:14:44;49601.41;;;-146.94;38.57
56737;BME280;42618;51.226;4.910;2023-04-20T09:17:13;49559.56;;;-146.94;38.93
56737;BME280;42618;51.226;4.910;2023-04-20T09:19:43;49583.47;;;-146.94;38.84
56737;BME280;42618;51.226;4.910;2023-04-20T09:22:10;49585.47;;;-146.94;38.24
56737;BME280;42618;51.226;4.910;2023-04-20T09:24:38;49541.59;;;-146.94;38.20
56737;BME280;42618;51.226;4.910;2023-04-20T09:27:15;49591.44;;;-146.94;38.06
56737;BME280;42618;51.226;4.910;2023-04-20T09:29:43;49581.47;;;-146.94;38.34
56737;BME280;42618;51.226;4.910;2023-04-20T09:32:28;49601.41;;;-146.94;38.58
56737;BME280;42618;51.226;4.910;2023-04-20T09:34:55;49603.41;;;-146.94;38.30
56737;BME280;42618;51.226;4.910;2023-04-20T09:37:22;49591.44;;;-146.94;38.59
56737;BME280;42618;51.226;4.910;2023-04-20T09:39:49;49591.44;;;-146.94;38.90
56737;BME280;42618;51.226;4.910;2023-04-20T09:42:19;49587.47;;;-146.94;38.95
56737;BME280;42618;51.226;4.910;2023-04-20T09:44:46;49547.59;;;-146.94;38.49
56737;BME280;42618;51.226;4.910;2023-04-20T09:47:15;49625.34;;;-146.94;39.37
56737;BME280;42618;51.226;4.910;2023-04-20T09:49:45;49607.41;;;-146.94;38.46
56737;BME280;42618;51.226;4.910;2023-04-20T09:52:17;49613.38;;;-146.94;38.60
56737;BME280;42618;51.226;4.910;2023-04-20T09:54:44;49581.47;;;-146.94;38.48
56737;BME280;42618;51.226;4.910;2023-04-20T09:57:12;49615.38;;;-146.94;38.81
56737;BME280;42618;51.226;4.910;2023-04-20T09:59:46;49615.38;;;-146.94;38.61
56737;BME280;42618;51.226;4.910;2023-04-20T10:02:13;49595.44;;;-146.94;38.88
56737;BME280;42618;51.226;4.910;2023-04-20T10:05:09;49627.31;;;-146.94;38.56
56737;BME280;42618;51.226;4.910;2023-04-20T10:07:36;49607.41;;;-146.94;39.64
56737;BME280;42618;51.226;4.910;2023-04-20T10:12:30;49619.34;;;-146.94;39.16
56737;BME280;42618;51.226;4.910;2023-04-20T10:14:57;49599.41;;;-146.94;38.88
56737;BME280;42618;51.226;4.910;2023-04-20T10:17:30;49627.31;;;-146.94;39.84
56737;BME280;42618;51.226;4.910;2023-04-20T10:19:57;49633.31;;;-146.94;40.07
56737;BME280;42618;51.226;4.910;2023-04-20T10:22:27;49595.44;;;-146.94;39.60
56737;BME280;42618;51.226;4.910;2023-04-20T10:24:59;49641.28;;;-146.94;39.80
56737;BME280;42618;51.226;4.910;2023-04-20T10:27:26;49593.44;;;-146.94;39.75
56737;BME280;42618;51.226;4.910;2023-04-20T10:29:53;49607.41;;;-146.94;39.98
56737;BME280;42618;51.226;4.910;2023-04-20T10:32:29;49591.44;;;-146.94;39.70
56737;BME280;42618;51.226;4.910;2023-04-20T10:35:06;49613.38;;;-146.94;40.29
56737;BME280;42618;51.226;4.910;2023-04-20T10:37:34;49587.47;;;-146.94;39.78
56737;BME280;42618;51.226;4.910;2023-04-20T10:40:02;49571.50;;;-146.94;39.47
56737;BME280;42618;51.226;4.910;2023-04-20T10:42:43;49595.44;;;-146.94;39.38
56737;BME280;42618;51.226;4.910;2023-04-20T10:45:11;49583.47;;;-146.94;39.10
56737;BME280;42618;51.226;4.910;2023-04-20T10:47:38;49615.38;;;-146.94;39.11
56737;BME280;42618;51.226;4.910;2023-04-20T10:50:09;49575.50;;;-146.94;38.39
56737;BME280;42618;51.226;4.910;2023-04-20T10:52:38;49603.41;;;-146.94;37.37
56737;BME280;42618;51.226;4.910;2023-04-20T10:55:16;49559.56;;;-146.94;37.51
56737;BME280;42618;51.226;4.910;2023-04-20T10:57:44;49599.41;;;-146.94;37.84
56737;BME280;42618;51.226;4.910;2023-04-20T11:00:19;49563.53;;;-146.94;37.43
56737;BME280;42618;51.226;4.910;2023-04-20T11:02:55;49607.41;;;-146.94;37.11
56737;BME280;42618;51.226;4.910;2023-04-20T11:05:25;49599.41;;;-146.94;37.31
56737;BME280;42618;51.226;4.910;2023-04-20T11:07:54;49591.44;;;-146.94;37.96
56737;BME280;42618;51.226;4.910;2023-04-20T11:10:35;49605.41;;;-146.94;37.43
56737;BME280;42618;51.226;4.910;2023-04-20T11:13:03;49583.47;;;-146.94;37.48
56737;BME280;42618;51.226;4.910;2023-04-20T11:15:30;49597.44;;;-146.94;37.35
56737;BME280;42618;51.226;4.910;2023-04-20T11:18:06;49609.38;;;-146.94;37.80
56737;BME280;42618;51.226;4.910;2023-04-20T11:20:33;49607.41;;;-146.94;37.37
56737;BME280;42618;51.226;4.910;2023-04-20T11:23:00;49579.47;;;-146.94;37.37
56737;BME280;42618;51.226;4.910;2023-04-20T11:25:27;49577.50;;;-146.94;37.58
56737;BME280;42618;51.226;4.910;2023-04-20T11:28:04;49563.53;;;-146.94;37.72
56737;BME280;42618;51.226;4.910;2023-04-20T11:30:38;49591.44;;;-146.94;37.85
56737;BME280;42618;51.226;4.910;2023-04-20T11:33:05;49587.47;;;-146.94;37.81
56737;BME280;42618;51.226;4.910;2023-04-20T11:35:36;49561.53;;;-146.94;37.64
56737;BME280;42618;51.226;4.910;2023-04-20T11:38:04;49589.44;;;-146.94;37.92
56737;BME280;42618;51.226;4.910;2023-04-20T11:40:30;49599.41;;;-146.94;38.60
56737;BME280;42618;51.226;4.910;2023-04-20T11:42:58;49599.41;;;-146.94;39.57
56737;BME280;42618;51.226;4.910;2023-04-20T11:45:26;49597.44;;;-146.94;39.62
56737;BME280;42618;51.226;4.910;2023-04-20T11:47:53;49555.56;;;-146.94;38.69
56737;BME280;42618;51.226;4.910;2023-04-20T11:50:21;49611.38;;;-146.94;39.23
56737;BME280;42618;51.226;4.910;2023-04-20T11:52:48;49547.59;;;-146.94;38.30
56737;BME280;42618;51.226;4.910;2023-04-20T11:55:15;49529.66;;;-146.94;37.88
56737;BME280;42618;51.226;4.910;2023-04-20T11:57:42;49557.56;;;-146.94;37.71
56737;BME280;42618;51.226;4.910;2023-04-20T12:00:09;49601.41;;;-146.94;37.78
56737;BME280;42618;51.226;4.910;2023-04-20T12:02:41;49591.44;;;-146.94;38.67
56737;BME280;42618;51.226;4.910;2023-04-20T12:05:08;49611.38;;;-146.94;38.12
56737;BME280;42618;51.226;4.910;2023-04-20T12:07:36;49583.47;;;-146.94;38.23
56737;BME280;42618;51.226;4.910;2023-04-20T12:10:03;49601.41;;;-146.94;38.34
56737;BME280;42618;51.226;4.910;2023-04-20T12:12:30;49585.47;;;-146.94;38.49
56737;BME280;42618;51.226;4.910;2023-04-20T12:14:57;49621.34;;;-146.94;38.56
56737;BME280;42618;51.226;4.910;2023-04-20T12:17:24;49615.38;;;-146.94;39.33
56737;BME280;42618;51.226;4.910;2023-04-20T12:19:51;49603.41;;;-146.94;40.19
56737;BME280;42618;51.226;4.910;2023-04-20T12:22:18;49595.44;;;-146.94;40.21
56737;BME280;42618;51.226;4.910;2023-04-20T12:24:44;49605.41;;;-146.94;39.74
56737;BME280;42618;51.226;4.910;2023-04-20T12:27:11;49607.41;;;-146.94;40.08
56737;BME280;42618;51.226;4.910;2023-04-20T12:29:38;49617.38;;;-146.94;39.16
56737;BME280;42618;51.226;4.910;2023-04-20T12:32:04;49603.41;;;-146.94;39.35
56737;BME280;42618;51.226;4.910;2023-04-20T12:34:31;49567.53;;;-146.94;39.14
56737;BME280;42618;51.226;4.910;2023-04-20T12:36:58;49567.53;;;-146.94;39.17
56737;BME280;42618;51.226;4.910;2023-04-20T12:39:24;49613.38;;;-146.94;40.28
56737;BME280;42618;51.226;4.910;2023-04-20T12:41:51;49635.31;;;-146.94;42.49
56737;BME280;42618;51.226;4.910;2023-04-20T12:44:18;49591.44;;;-146.94;43.93
56737;BME280;42618;51.226;4.910;2023-04-20T12:46:45;49607.41;;;-146.94;44.85
56737;BME280;42618;51.226;4.910;2023-04-20T12:49:12;49591.44;;;-146.94;45.74
56737;BME280;42618;51.226;4.910;2023-04-20T12:51:38;49583.47;;;-146.94;45.25